Millis, Massachusetts
Current Conditions -  °F | °C
As of 12:53 PM on Friday 19 Dec 2014 (Local Time) from KOWD Reporting Station
Overcast Overcast  
Wind Chill: 28°   Ceiling: 3200
Heat Index: 34°   Visibility: 10mi
Dew Point: 21°   Wind: 7mph
Humidity: 59%   Direction: 320°NW
Pressure: 29.95"   Gusts: NA
Location:  42.17°N, 71.36°W
Report Text: KOWD 191753Z 32006KT 10SM OVC032 01/M06 A2995 RMK AO2 SLP141 T00111061 10017 20011 56004
Loading
Personal Weather Stations






























Interactive Weather Map New forecast layout! Learn more

10-Day Weather Forecast

Advertisements
Track Severe Weather on mobile